Time;durP1;ratioP1;P1;durP2;ratioP2;P2;SDS_P1;SDS_P2;PMS_P1;PMS_P2;Temp;Humidity;BMP_temperature;BMP_pressure;BME280_temperature;BME280_humidity;BME280_pressure;Samples;Min_cycle;Max_cycle;Signal;HPM_P1;HPM_P2
2023/10/02 00:00:40;;;;;;;19.67;11.50;;;15.40;21.70;;;;;;4989187;28;20464;-66
2023/10/02 00:03:09;;;;;;;18.07;10.20;;;15.30;21.80;;;;;;4985851;28;20466;-67
2023/10/02 00:05:50;;;;;;;15.77;8.80;;;15.30;21.80;;;;;;4987966;28;20798;-66
2023/10/02 00:08:31;;;;;;;17.37;10.80;;;15.30;21.70;;;;;;4985974;28;20469;-65
2023/10/02 00:11:35;;;;;;;19.90;10.40;;;15.30;21.60;;;;;;4984527;28;20559;-65
2023/10/02 00:14:18;;;;;;;20.70;10.10;;;15.20;22.00;;;;;;4984268;28;20481;-67
2023/10/02 00:16:43;;;;;;;17.20;10.57;;;15.20;21.80;;;;;;4985017;28;20953;-68
2023/10/02 00:19:22;;;;;;;19.80;11.17;;;15.20;22.60;;;;;;4988454;28;20511;-68
2023/10/02 00:21:50;;;;;;;18.93;10.70;;;15.10;23.50;;;;;;4989039;28;20465;-67
2023/10/02 00:24:17;;;;;;;17.03;10.70;;;15.10;24.30;;;;;;4988259;28;20492;-67
2023/10/02 00:26:45;;;;;;;20.43;10.03;;;15.10;24.00;;;;;;4986121;28;20475;-67
2023/10/02 00:29:12;;;;;;;22.07;12.27;;;15.10;24.60;;;;;;4985625;28;21009;-68
2023/10/02 00:31:42;;;;;;;15.90;10.07;;;15.10;24.50;;;;;;4983617;28;20487;-66
2023/10/02 00:34:09;;;;;;;18.77;10.80;;;15.10;25.00;;;;;;4987821;28;20526;-68
2023/10/02 00:36:36;;;;;;;21.40;9.73;;;15.10;25.20;;;;;;4983628;28;20461;-66
2023/10/02 00:39:25;;;;;;;16.83;10.93;;;15.00;25.60;;;;;;4988341;28;20828;-68
2023/10/02 00:44:57;;;;;;;21.47;11.23;;;15.00;25.60;;;;;;4986497;28;20519;-67
2023/10/02 00:47:41;;;;;;;23.87;12.40;;;15.00;26.10;;;;;;4985142;28;20474;-67
2023/10/02 00:50:16;;;;;;;19.87;11.07;;;15.00;26.40;;;;;;4986831;28;20576;-68
2023/10/02 00:52:43;;;;;;;17.53;10.50;;;14.90;26.10;;;;;;4989531;28;20467;-66
2023/10/02 00:55:14;;;;;;;18.83;9.93;;;14.90;26.50;;;;;;4986298;28;20872;-67
2023/10/02 00:57:45;;;;;;;21.10;11.17;;;14.90;26.60;;;;;;4987123;28;20465;-67
2023/10/02 01:00:20;;;;;;;20.30;11.57;;;14.90;26.90;;;;;;4989591;28;20461;-67
2023/10/02 01:02:48;;;;;;;17.83;11.00;;;14.90;27.20;;;;;;4992244;28;20551;-68
2023/10/02 01:05:21;;;;;;;20.50;11.90;;;14.90;27.30;;;;;;4981046;28;20489;-68
2023/10/02 01:07:53;;;;;;;19.93;10.30;;;14.80;27.40;;;;;;4985102;28;20462;-67
2023/10/02 01:10:23;;;;;;;19.40;11.70;;;14.80;27.20;;;;;;4987669;28;20544;-67
2023/10/02 01:12:53;;;;;;;19.10;10.63;;;14.70;27.00;;;;;;4988765;28;20456;-66
2023/10/02 01:15:26;;;;;;;18.73;11.87;;;14.70;27.00;;;;;;4986692;28;20570;-66
2023/10/02 01:17:53;;;;;;;23.47;11.77;;;14.70;26.90;;;;;;4984231;28;20473;-67
2023/10/02 01:20:32;;;;;;;23.63;10.80;;;14.70;27.00;;;;;;4987126;28;20460;-67
2023/10/02 01:23:16;;;;;;;19.53;9.90;;;14.60;27.40;;;;;;4982070;28;20493;-66
2023/10/02 01:25:44;;;;;;;16.90;10.57;;;14.60;27.10;;;;;;4983339;28;20472;-67
2023/10/02 01:28:13;;;;;;;17.60;10.00;;;14.60;26.90;;;;;;4984133;28;21190;-67
2023/10/02 01:30:41;;;;;;;16.60;9.40;;;14.50;26.80;;;;;;4985361;28;20479;-66
2023/10/02 01:33:11;;;;;;;16.10;9.50;;;14.50;26.80;;;;;;4986895;28;20487;-66
2023/10/02 01:35:46;;;;;;;16.23;9.17;;;14.40;26.60;;;;;;4985576;28;21356;-66
2023/10/02 01:38:14;;;;;;;16.73;10.10;;;14.40;26.50;;;;;;4985446;28;20999;-66
2023/10/02 01:40:48;;;;;;;16.60;9.93;;;14.40;26.60;;;;;;4988169;28;20632;-67
2023/10/02 01:43:16;;;;;;;16.60;10.23;;;14.40;26.90;;;;;;4985961;28;20464;-66
2023/10/02 01:45:43;;;;;;;17.87;10.77;;;14.30;27.00;;;;;;4984670;28;20881;-66
2023/10/02 01:48:13;;;;;;;18.83;10.40;;;14.30;27.00;;;;;;4986848;28;20470;-69
2023/10/02 01:50:42;;;;;;;17.10;10.13;;;14.30;27.30;;;;;;4988122;28;20508;-66
2023/10/02 01:53:26;;;;;;;20.77;9.80;;;14.30;27.30;;;;;;4985878;28;20461;-66
2023/10/02 01:56:00;;;;;;;16.97;9.70;;;14.30;27.50;;;;;;4989562;28;20850;-66
2023/10/02 01:58:27;;;;;;;18.70;10.10;;;14.30;27.10;;;;;;4993236;28;20464;-67
2023/10/02 02:00:54;;;;;;;17.87;9.97;;;14.30;27.30;;;;;;4991352;28;20476;-66
2023/10/02 02:03:22;;;;;;;17.47;10.10;;;14.30;27.40;;;;;;4982750;28;20476;-66
2023/10/02 02:05:49;;;;;;;20.57;11.27;;;14.30;27.40;;;;;;4985724;28;20460;-66
2023/10/02 02:08:25;;;;;;;16.00;10.87;;;14.30;27.70;;;;;;4983766;28;20468;-66
2023/10/02 02:10:53;;;;;;;19.87;11.03;;;14.30;27.80;;;;;;4987904;28;20488;-66
2023/10/02 02:13:22;;;;;;;18.60;9.90;;;14.20;27.90;;;;;;4987067;28;20581;-66
2023/10/02 02:16:06;;;;;;;18.47;10.00;;;14.20;28.10;;;;;;4985656;28;20457;-66
2023/10/02 02:18:33;;;;;;;17.33;8.40;;;14.20;28.10;;;;;;4985406;28;20482;-66
2023/10/02 02:21:01;;;;;;;12.67;7.23;;;14.20;28.10;;;;;;4992860;28;20488;-66
2023/10/02 02:23:27;;;;;;;10.73;7.03;;;14.10;28.30;;;;;;4988952;28;20471;-66
2023/10/02 02:25:55;;;;;;;13.37;7.63;;;14.10;28.30;;;;;;4990009;28;20473;-67
2023/10/02 02:28:23;;;;;;;17.63;9.17;;;14.10;28.10;;;;;;4984879;28;20461;-66
2023/10/02 02:30:50;;;;;;;15.40;8.30;;;14.00;28.00;;;;;;4988119;28;21075;-66
2023/10/02 02:33:34;;;;;;;14.57;9.43;;;14.00;27.70;;;;;;4984637;28;20465;-66
2023/10/02 02:36:05;;;;;;;18.30;8.57;;;14.00;27.50;;;;;;4986660;28;20883;-66
2023/10/02 02:38:33;;;;;;;18.87;10.43;;;14.00;27.50;;;;;;4986576;28;20555;-67
2023/10/02 02:41:07;;;;;;;15.07;10.10;;;13.90;27.50;;;;;;4987631;28;20491;-68
2023/10/02 02:43:37;;;;;;;17.57;9.40;;;13.90;27.60;;;;;;4990579;28;20559;-67
2023/10/02 02:46:08;;;;;;;16.07;9.47;;;13.90;27.50;;;;;;4990700;28;20864;-68
2023/10/02 02:48:43;;;;;;;17.13;8.80;;;13.90;27.40;;;;;;4987604;28;20460;-68
2023/10/02 02:51:18;;;;;;;18.97;10.03;;;13.90;27.30;;;;;;4989772;28;20483;-67
2023/10/02 02:53:46;;;;;;;16.00;9.87;;;13.90;27.60;;;;;;4983124;28;20554;-66
2023/10/02 02:56:18;;;;;;;20.53;9.70;;;13.80;27.70;;;;;;4990850;28;20534;-67
2023/10/02 02:58:48;;;;;;;17.33;9.50;;;13.80;28.30;;;;;;4987211;28;20959;-67
2023/10/02 03:01:16;;;;;;;20.23;10.10;;;13.90;28.80;;;;;;4985601;28;20477;-66
2023/10/02 03:03:44;;;;;;;17.47;10.43;;;13.90;29.80;;;;;;4993200;28;20500;-66
2023/10/02 03:06:18;;;;;;;15.00;9.50;;;13.90;29.20;;;;;;4987444;28;20531;-67
2023/10/02 03:08:46;;;;;;;18.07;10.07;;;13.90;29.30;;;;;;4987250;28;20468;-66
2023/10/02 03:11:19;;;;;;;17.27;10.07;;;13.90;29.20;;;;;;4987837;28;20499;-67
2023/10/02 03:13:48;;;;;;;17.50;10.20;;;13.90;29.30;;;;;;4984409;28;20543;-67
2023/10/02 03:16:17;;;;;;;22.37;11.80;;;13.90;29.50;;;;;;4987850;28;20514;-67
2023/10/02 03:18:45;;;;;;;21.07;10.80;;;13.90;29.60;;;;;;4988505;28;20647;-67
2023/10/02 03:21:23;;;;;;;19.60;11.40;;;13.80;29.60;;;;;;4988985;28;20479;-67
2023/10/02 03:23:50;;;;;;;17.37;9.70;;;13.90;30.10;;;;;;4988396;28;21015;-67
2023/10/02 03:29:05;;;;;;;21.93;13.23;;;13.80;29.90;;;;;;4988550;28;20455;-67
2023/10/02 03:31:36;;;;;;;15.47;10.30;;;13.80;30.00;;;;;;4988159;28;20484;-67
2023/10/02 03:34:25;;;;;;;20.93;11.90;;;13.80;30.00;;;;;;4988645;28;20492;-66
2023/10/02 03:36:54;;;;;;;21.67;10.97;;;13.80;29.60;;;;;;4984990;28;20460;-66
2023/10/02 03:42:12;;;;;;;19.77;11.20;;;13.70;29.70;;;;;;4988173;28;20803;-66
2023/10/02 03:44:40;;;;;;;17.50;10.20;;;13.70;29.60;;;;;;4985460;28;20592;-66
2023/10/02 03:47:07;;;;;;;21.17;11.40;;;13.70;29.50;;;;;;4988660;28;20989;-66
2023/10/02 03:49:34;;;;;;;23.80;11.20;;;13.70;29.70;;;;;;4987297;28;20496;-67
2023/10/02 03:52:01;;;;;;;19.23;10.87;;;13.60;29.60;;;;;;4987407;28;20465;-66
2023/10/02 03:57:37;;;;;;;22.93;10.87;;;13.60;29.80;;;;;;4985282;28;20485;-65
2023/10/02 04:00:12;;;;;;;16.33;9.07;;;13.60;29.50;;;;;;4989407;28;20807;-65
2023/10/02 04:02:43;;;;;;;16.90;10.03;;;13.60;29.20;;;;;;4987025;28;20479;-65
2023/10/02 04:05:10;;;;;;;17.43;10.27;;;13.60;29.00;;;;;;4986005;28;20506;-64
2023/10/02 04:07:37;;;;;;;21.03;10.10;;;13.60;29.10;;;;;;4990915;28;20957;-65
2023/10/02 04:10:06;;;;;;;17.33;10.80;;;13.60;28.90;;;;;;4989721;28;20489;-65
2023/10/02 04:12:50;;;;;;;19.70;11.37;;;13.60;28.80;;;;;;4987700;28;20469;-65
2023/10/02 04:15:18;;;;;;;17.90;10.10;;;13.60;28.80;;;;;;4990292;28;20966;-65
2023/10/02 04:17:49;;;;;;;19.50;11.03;;;13.50;28.90;;;;;;4991877;28;20967;-65
2023/10/02 04:20:27;;;;;;;24.03;13.30;;;13.50;29.00;;;;;;4993736;28;20980;-65
2023/10/02 04:22:54;;;;;;;21.03;12.37;;;13.50;29.20;;;;;;4988013;28;20877;-65
2023/10/02 04:25:24;;;;;;;22.80;12.73;;;13.50;29.60;;;;;;4988251;28;20492;-65
2023/10/02 04:28:08;;;;;;;23.40;12.97;;;13.50;29.80;;;;;;4990102;28;20465;-64
2023/10/02 04:30:37;;;;;;;18.93;11.70;;;13.50;30.00;;;;;;4987073;28;20998;-64
2023/10/02 04:33:08;;;;;;;22.17;12.43;;;13.60;30.30;;;;;;4987740;28;20463;-65
2023/10/02 04:35:52;;;;;;;26.53;12.80;;;13.50;30.30;;;;;;4990763;28;21028;-65
2023/10/02 04:38:48;;;;;;;20.07;12.17;;;13.60;30.40;;;;;;4988863;28;20527;-66
2023/10/02 04:41:20;;;;;;;20.30;12.07;;;13.60;30.60;;;;;;4987508;28;20460;-65
2023/10/02 04:43:48;;;;;;;20.67;11.33;;;13.50;30.40;;;;;;4990319;28;20476;-65
2023/10/02 04:46:15;;;;;;;21.70;12.00;;;13.50;30.40;;;;;;4991378;28;20456;-65
2023/10/02 04:48:54;;;;;;;25.37;12.93;;;13.50;30.10;;;;;;4990568;28;20500;-65
2023/10/02 04:51:22;;;;;;;20.20;12.20;;;13.50;30.20;;;;;;4990093;28;20481;-65
2023/10/02 04:53:49;;;;;;;19.70;11.40;;;13.50;30.20;;;;;;4990585;28;20520;-65
2023/10/02 04:56:24;;;;;;;23.67;12.40;;;13.50;30.40;;;;;;4990368;28;20473;-65
2023/10/02 04:58:52;;;;;;;20.80;11.80;;;13.60;30.40;;;;;;4989679;28;20468;-65
2023/10/02 05:01:34;;;;;;;21.63;12.27;;;13.50;30.30;;;;;;4987092;28;20560;-64
2023/10/02 05:04:02;;;;;;;20.90;11.37;;;13.50;30.20;;;;;;4985482;28;21056;-65
2023/10/02 05:06:52;;;;;;;22.17;12.27;;;13.50;30.10;;;;;;4987365;28;20490;-65
2023/10/02 05:09:26;;;;;;;16.60;11.30;;;13.50;30.00;;;;;;4985110;28;20465;-65
2023/10/02 05:11:55;;;;;;;22.20;12.63;;;13.40;29.60;;;;;;4986879;28;20598;-65
2023/10/02 05:14:26;;;;;;;16.13;10.23;;;13.40;29.50;;;;;;4981179;28;20568;-65
2023/10/02 05:17:16;;;;;;;19.00;10.63;;;13.40;29.40;;;;;;4998914;23;20619;-66
2023/10/02 05:19:56;;;;;;;19.00;9.97;;;13.40;29.30;;;;;;4984176;28;20484;-67
2023/10/02 05:22:24;;;;;;;20.97;9.40;;;13.30;28.90;;;;;;4989744;28;20503;-68
2023/10/02 05:24:58;;;;;;;21.43;11.13;;;13.30;28.70;;;;;;4983832;28;20501;-67
2023/10/02 05:27:29;;;;;;;16.33;10.13;;;13.20;28.50;;;;;;4974510;28;20528;-68
2023/10/02 05:29:58;;;;;;;17.13;9.63;;;13.20;28.40;;;;;;4965108;28;20943;-68
2023/10/02 05:32:31;;;;;;;20.47;11.53;;;13.20;28.40;;;;;;4966831;28;20485;-67
2023/10/02 05:35:05;;;;;;;20.63;11.00;;;13.30;28.30;;;;;;4970815;28;20488;-67
2023/10/02 05:37:34;;;;;;;16.27;9.80;;;13.30;28.40;;;;;;4974821;28;20953;-67
2023/10/02 05:43:18;;;;;;;20.57;9.77;;;13.40;29.10;;;;;;5108274;27;20902;-68
2023/10/02 05:45:48;;;;;;;19.27;11.57;;;13.50;29.60;;;;;;5068117;28;20457;-68
2023/10/02 05:48:27;;;;;;;19.90;10.67;;;13.70;29.90;;;;;;5070641;28;20535;-66
2023/10/02 05:50:56;;;;;;;17.23;9.87;;;13.80;30.30;;;;;;5070296;28;20906;-68
2023/10/02 05:53:26;;;;;;;18.73;11.27;;;14.00;29.90;;;;;;5066362;28;20457;-68
2023/10/02 05:56:05;;;;;;;17.50;10.10;;;14.20;29.10;;;;;;5067081;28;20559;-67
2023/10/02 05:58:35;;;;;;;17.50;10.37;;;14.50;28.00;;;;;;5070825;28;20463;-66
2023/10/02 06:01:03;;;;;;;17.43;10.10;;;14.90;26.50;;;;;;5066196;28;20483;-68
2023/10/02 06:03:34;;;;;;;16.23;9.70;;;15.50;25.00;;;;;;5066288;28;20465;-66
2023/10/02 06:06:15;;;;;;;16.87;10.47;;;16.10;23.20;;;;;;5065016;28;21039;-66
2023/10/02 06:08:43;;;;;;;17.30;9.87;;;16.70;20.80;;;;;;5065602;28;20544;-67
2023/10/02 06:11:25;;;;;;;20.47;10.70;;;17.00;19.60;;;;;;5067503;28;20453;-68
2023/10/02 06:13:55;;;;;;;16.63;10.23;;;17.10;18.80;;;;;;5061486;28;21924;-68
2023/10/02 06:16:25;;;;;;;17.90;9.80;;;17.20;18.60;;;;;;5062995;28;20519;-68
2023/10/02 06:19:00;;;;;;;17.77;10.20;;;17.50;18.10;;;;;;5065526;28;20556;-68
2023/10/02 06:21:29;;;;;;;16.00;10.10;;;17.80;17.30;;;;;;5062603;28;20488;-68
2023/10/02 06:23:56;;;;;;;18.83;9.97;;;18.20;16.60;;;;;;5063806;28;20489;-67
2023/10/02 06:26:26;;;;;;;18.23;9.73;;;18.50;15.90;;;;;;5064676;28;20485;-67
2023/10/02 06:29:13;;;;;;;20.70;10.53;;;18.60;15.40;;;;;;5064679;28;20484;-68
2023/10/02 06:31:42;;;;;;;16.73;9.90;;;18.80;15.10;;;;;;5062422;28;20497;-67
2023/10/02 06:34:11;;;;;;;18.20;11.43;;;19.00;14.90;;;;;;5057346;28;20506;-67
2023/10/02 06:36:45;;;;;;;20.93;11.30;;;19.10;14.50;;;;;;5065774;28;20496;-67
2023/10/02 06:39:14;;;;;;;23.67;12.87;;;19.30;14.10;;;;;;5065257;28;20525;-67
2023/10/02 06:41:41;;;;;;;17.73;11.20;;;19.40;13.50;;;;;;5064897;28;20481;-67
2023/10/02 06:44:15;;;;;;;20.47;11.63;;;19.50;13.00;;;;;;5056792;28;20509;-67
2023/10/02 06:46:52;;;;;;;19.73;11.77;;;19.70;12.60;;;;;;5062675;28;20461;-68
2023/10/02 06:49:20;;;;;;;27.13;14.20;;;19.90;12.20;;;;;;5068167;28;20476;-67
2023/10/02 06:51:49;;;;;;;24.77;13.40;;;20.20;11.90;;;;;;5063812;28;20453;-67
2023/10/02 06:54:18;;;;;;;21.43;12.87;;;20.50;11.70;;;;;;5042523;28;20482;-67
2023/10/02 06:56:44;;;;;;;23.40;13.27;;;20.70;11.20;;;;;;5051371;28;20994;-67
2023/10/02 06:59:13;;;;;;;27.50;13.33;;;21.00;11.00;;;;;;5051768;28;20469;-67
2023/10/02 07:02:01;;;;;;;21.97;12.60;;;21.30;10.10;;;;;;5049336;28;20466;-67
2023/10/02 07:04:30;;;;;;;22.20;13.60;;;21.70;9.40;;;;;;5047421;28;20466;-67
2023/10/02 07:07:03;;;;;;;22.93;12.80;;;22.50;7.70;;;;;;5048888;28;21121;-67
2023/10/02 07:09:35;;;;;;;26.70;13.23;;;23.40;5.90;;;;;;5050888;28;20512;-67
2023/10/02 07:12:09;;;;;;;21.87;13.50;;;24.40;3.60;;;;;;5052341;28;20847;-67
2023/10/02 07:14:38;;;;;;;21.03;13.97;;;25.50;1.40;;;;;;5050786;28;20477;-67
2023/10/02 07:17:16;;;;;;;23.90;14.07;;;26.70;1.00;;;;;;5049951;28;20462;-67
2023/10/02 07:19:48;;;;;;;22.17;13.97;;;27.90;1.00;;;;;;5048990;28;20458;-66
2023/10/02 07:22:17;;;;;;;22.93;13.73;;;28.80;1.00;;;;;;5049792;28;20509;-67
2023/10/02 07:24:46;;;;;;;24.10;16.13;;;29.70;1.00;;;;;;5044987;28;20491;-67
2023/10/02 07:27:25;;;;;;;21.10;13.70;;;30.30;1.00;;;;;;5047544;28;20461;-67
2023/10/02 07:29:55;;;;;;;22.20;13.50;;;30.90;1.00;;;;;;5047247;28;20560;-67
2023/10/02 07:32:24;;;;;;;24.07;15.13;;;31.40;1.00;;;;;;5043596;28;20478;-67
2023/10/02 07:34:54;;;;;;;25.63;15.90;;;32.10;1.00;;;;;;5049828;28;20485;-67
2023/10/02 07:37:22;;;;;;;21.47;13.27;;;32.90;1.00;;;;;;5054141;28;20515;-68
2023/10/02 07:39:56;;;;;;;25.03;16.23;;;33.70;1.00;;;;;;5044680;28;20557;-67
2023/10/02 07:42:28;;;;;;;22.77;14.40;;;34.80;1.00;;;;;;5044791;28;21153;-66
2023/10/02 07:45:11;;;;;;;21.63;14.00;;;35.70;1.00;;;;;;5047910;28;20540;-67
2023/10/02 07:47:55;;;;;;;25.33;15.00;;;36.50;1.00;;;;;;5050736;28;20462;-67
2023/10/02 07:50:33;;;;;;;22.00;15.00;;;37.00;1.00;;;;;;5043162;28;20458;-67
2023/10/02 07:53:05;;;;;;;21.80;13.17;;;37.70;1.00;;;;;;5046866;28;20458;-67
2023/10/02 07:55:39;;;;;;;21.77;14.37;;;38.40;1.00;;;;;;5053597;28;20861;-68
2023/10/02 07:58:07;;;;;;;19.37;14.17;;;39.00;1.00;;;;;;5046539;28;20462;-67
2023/10/02 08:00:40;;;;;;;19.93;12.97;;;39.10;1.00;;;;;;5046876;28;20474;-67
2023/10/02 08:03:29;;;;;;;19.57;13.67;;;39.50;1.00;;;;;;5042220;28;20481;-67
2023/10/02 08:05:57;;;;;;;18.13;13.37;;;40.00;1.00;;;;;;5046334;28;20454;-67
2023/10/02 08:08:31;;;;;;;19.10;13.40;;;40.70;1.00;;;;;;5050327;28;20552;-67
2023/10/02 08:10:59;;;;;;;18.40;12.80;;;41.30;1.00;;;;;;5049064;28;20455;-68
2023/10/02 08:13:33;;;;;;;19.63;13.13;;;41.80;1.00;;;;;;5049022;28;20464;-67
2023/10/02 08:16:11;;;;;;;17.50;13.60;;;41.70;1.00;;;;;;5047503;28;20508;-67
2023/10/02 08:18:56;;;;;;;17.47;13.03;;;41.90;1.00;;;;;;5045596;28;20501;-67
2023/10/02 08:21:33;;;;;;;23.27;14.80;;;42.40;1.00;;;;;;5052777;28;20462;-67
2023/10/02 08:24:04;;;;;;;17.93;13.20;;;42.70;1.00;;;;;;5042612;28;20485;-67
2023/10/02 08:26:38;;;;;;;17.10;13.23;;;42.90;1.00;;;;;;5048504;28;20457;-67
2023/10/02 08:29:07;;;;;;;18.50;13.17;;;42.90;1.00;;;;;;5049224;28;20453;-67
2023/10/02 08:31:35;;;;;;;18.43;13.73;;;42.60;1.00;;;;;;5048159;28;20462;-68
2023/10/02 08:34:05;;;;;;;16.80;13.03;;;42.20;1.00;;;;;;5047381;28;20481;-67
2023/10/02 08:36:32;;;;;;;17.40;12.37;;;42.30;1.00;;;;;;5044297;28;20458;-67
2023/10/02 08:38:59;;;;;;;18.67;13.87;;;42.60;1.00;;;;;;5044886;28;20826;-68
2023/10/02 08:41:27;;;;;;;20.37;14.43;;;42.70;1.00;;;;;;5044665;28;20462;-67
2023/10/02 08:44:13;;;;;;;20.33;13.23;;;43.00;1.00;;;;;;5046429;28;20513;-67
2023/10/02 08:46:43;;;;;;;17.13;13.10;;;43.40;1.00;;;;;;5039980;28;20466;-67
2023/10/02 08:49:11;;;;;;;18.13;14.10;;;43.60;1.00;;;;;;5044589;28;20565;-68
2023/10/02 08:51:39;;;;;;;20.80;14.30;;;43.90;1.00;;;;;;5045926;28;20477;-67
2023/10/02 08:54:06;;;;;;;20.57;15.33;;;44.20;1.00;;;;;;5043016;28;20483;-67
2023/10/02 08:56:43;;;;;;;18.17;14.43;;;44.40;1.00;;;;;;5042498;28;20462;-68
2023/10/02 08:59:17;;;;;;;19.40;14.60;;;44.50;1.00;;;;;;5045959;28;20454;-68
2023/10/02 09:01:47;;;;;;;20.13;14.63;;;44.90;1.00;;;;;;5043484;28;20477;-67
2023/10/02 09:04:28;;;;;;;20.23;14.57;;;45.10;1.00;;;;;;5043136;28;20478;-67
2023/10/02 09:06:59;;;;;;;17.20;13.23;;;45.20;1.00;;;;;;5047666;28;20461;-67
2023/10/02 09:09:28;;;;;;;21.37;15.17;;;45.70;1.00;;;;;;5048047;28;20466;-67
2023/10/02 09:11:58;;;;;;;20.20;13.50;;;46.00;1.00;;;;;;5046051;28;20468;-68
2023/10/02 09:17:22;;;;;;;17.30;13.50;;;46.90;1.00;;;;;;5085573;27;20554;-67
2023/10/02 09:20:03;;;;;;;16.80;13.77;;;47.40;1.00;;;;;;5066340;28;20507;-68
2023/10/02 09:22:36;;;;;;;18.30;13.80;;;47.80;1.00;;;;;;5060853;28;20489;-66
2023/10/02 09:25:18;;;;;;;20.57;15.43;;;48.10;1.00;;;;;;5049083;28;20552;-67
2023/10/02 09:27:56;;;;;;;18.83;14.97;;;48.20;1.00;;;;;;5044967;28;20910;-67
2023/10/02 09:30:36;;;;;;;18.30;13.50;;;48.20;1.00;;;;;;5041963;28;20454;-68
2023/10/02 09:33:10;;;;;;;21.70;15.63;;;48.30;1.00;;;;;;5040600;28;20515;-67
2023/10/02 09:35:42;;;;;;;20.60;15.13;;;48.60;1.00;;;;;;5044507;28;20505;-68
2023/10/02 09:38:13;;;;;;;19.00;14.43;;;48.80;1.00;;;;;;5042320;28;20974;-69
2023/10/02 09:40:58;;;;;;;20.07;15.00;;;49.00;1.00;;;;;;5044840;28;20550;-67
2023/10/02 09:43:28;;;;;;;18.40;14.70;;;49.10;1.00;;;;;;5039276;28;20461;-68
2023/10/02 09:45:58;;;;;;;20.63;15.03;;;48.80;1.00;;;;;;5044174;28;21124;-67
2023/10/02 09:49:01;;;;;;;19.83;14.37;;;48.70;1.00;;;;;;5044731;28;20482;-67
2023/10/02 09:51:38;;;;;;;17.50;13.60;;;48.30;1.00;;;;;;5041065;28;20450;-67
2023/10/02 09:54:17;;;;;;;19.47;14.73;;;48.10;1.00;;;;;;5036930;28;20489;-68
2023/10/02 09:57:04;;;;;;;20.40;15.33;;;47.90;1.00;;;;;;5041757;28;21009;-68
2023/10/02 09:59:37;;;;;;;19.43;14.00;;;47.50;1.00;;;;;;5040622;28;20553;-68
2023/10/02 10:05:45;;;;;;;17.73;14.50;;;46.70;1.00;;;;;;5024920;28;20479;-68
2023/10/02 10:08:27;;;;;;;20.73;14.23;;;46.30;1.00;;;;;;5018215;28;20569;-68
2023/10/02 10:10:57;;;;;;;20.17;14.60;;;45.70;1.00;;;;;;5026251;28;20947;-66
2023/10/02 10:13:36;;;;;;;20.63;14.80;;;45.30;1.00;;;;;;5022710;28;20455;-66
2023/10/02 10:16:38;;;;;;;19.63;14.30;;;44.90;1.00;;;;;;5024628;28;21036;-66
2023/10/02 10:19:32;;;;;;;20.67;14.40;;;44.40;1.00;;;;;;5022360;28;20531;-67
2023/10/02 10:22:04;;;;;;;20.17;14.13;;;43.80;1.00;;;;;;5028382;28;20824;-65
2023/10/02 10:24:56;;;;;;;22.00;15.20;;;43.30;1.00;;;;;;5023301;28;20491;-65
2023/10/02 10:27:54;;;;;;;20.03;14.77;;;42.70;1.00;;;;;;5016872;28;20549;-67
2023/10/02 10:30:46;;;;;;;21.17;15.47;;;42.10;1.00;;;;;;5012334;28;20498;-66
2023/10/02 10:33:36;;;;;;;20.70;15.77;;;41.40;1.00;;;;;;5005175;28;20486;-67
2023/10/02 10:36:09;;;;;;;20.47;14.23;;;40.70;1.00;;;;;;5009808;28;21055;-66
2023/10/02 10:38:42;;;;;;;18.77;13.83;;;39.90;1.00;;;;;;5010118;28;20455;-68
2023/10/02 10:41:14;;;;;;;19.00;13.90;;;39.20;1.00;;;;;;5010150;28;20995;-68
2023/10/02 10:43:55;;;;;;;19.90;14.50;;;38.70;1.00;;;;;;5010186;28;20483;-67
2023/10/02 10:46:24;;;;;;;20.17;14.40;;;38.20;1.00;;;;;;5007295;28;20483;-67
2023/10/02 10:49:07;;;;;;;19.93;14.70;;;37.60;1.00;;;;;;5008763;28;20472;-67
2023/10/02 10:51:34;;;;;;;19.87;14.77;;;37.30;1.00;;;;;;5009289;28;20499;-66
2023/10/02 10:54:13;;;;;;;21.97;15.00;;;37.00;1.00;;;;;;4993549;28;20515;-67
2023/10/02 10:56:43;;;;;;;22.40;15.00;;;36.90;1.00;;;;;;5007069;28;20549;-67
2023/10/02 10:59:15;;;;;;;21.37;14.40;;;36.70;1.00;;;;;;5006667;28;20471;-66
2023/10/02 11:02:09;;;;;;;22.27;14.70;;;36.50;1.00;;;;;;5010388;28;20487;-66
2023/10/02 11:04:39;;;;;;;20.80;14.43;;;36.40;1.00;;;;;;5009131;28;21070;-67
2023/10/02 11:07:19;;;;;;;20.23;14.20;;;36.20;1.00;;;;;;5006010;28;21131;-67
2023/10/02 11:10:12;;;;;;;20.60;14.80;;;36.30;1.00;;;;;;5004063;28;20537;-68
2023/10/02 11:12:38;;;;;;;22.93;15.20;;;36.40;1.00;;;;;;5007635;28;20515;-68
2023/10/02 11:15:28;;;;;;;21.87;14.50;;;36.50;1.00;;;;;;5016055;23;20491;-67
2023/10/02 11:18:18;;;;;;;24.10;15.97;;;36.50;1.00;;;;;;4988204;28;20468;-68
2023/10/02 11:20:49;;;;;;;23.07;15.10;;;36.50;1.00;;;;;;4990418;28;20520;-67
2023/10/02 11:23:22;;;;;;;22.00;16.27;;;36.50;1.00;;;;;;4987003;28;20885;-67
2023/10/02 11:25:55;;;;;;;21.87;14.13;;;36.50;1.00;;;;;;4969332;28;20493;-67
2023/10/02 11:28:31;;;;;;;23.07;15.73;;;36.50;1.00;;;;;;4966820;28;20469;-66
2023/10/02 11:31:29;;;;;;;22.60;16.57;;;36.50;1.00;;;;;;4967033;28;20496;-67
2023/10/02 11:34:02;;;;;;;21.10;14.50;;;36.50;1.00;;;;;;4968779;28;21010;-67
2023/10/02 11:36:33;;;;;;;24.67;16.30;;;36.40;1.00;;;;;;4971846;28;20491;-67
2023/10/02 11:39:01;;;;;;;21.90;15.67;;;36.30;1.00;;;;;;4969124;28;20453;-65
2023/10/02 11:41:29;;;;;;;25.37;16.60;;;36.20;1.00;;;;;;4967009;28;20453;-64
2023/10/02 11:43:57;;;;;;;20.60;14.80;;;36.10;1.00;;;;;;4970382;28;20488;-64
2023/10/02 11:46:23;;;;;;;23.90;16.30;;;36.10;1.00;;;;;;4970194;28;20540;-64
2023/10/02 11:48:51;;;;;;;22.80;16.17;;;36.10;1.00;;;;;;4971032;28;20461;-65
2023/10/02 11:51:18;;;;;;;24.87;16.60;;;36.00;1.00;;;;;;4970045;28;20493;-64
2023/10/02 11:53:44;;;;;;;30.40;17.40;;;35.80;1.00;;;;;;4970731;28;20486;-65
2023/10/02 11:56:11;;;;;;;28.37;17.33;;;35.70;1.00;;;;;;4969215;28;20516;-65
2023/10/02 11:58:39;;;;;;;26.17;17.13;;;35.60;1.00;;;;;;4968708;28;20465;-65
2023/10/02 12:01:07;;;;;;;25.07;16.67;;;35.30;1.00;;;;;;4976183;28;20503;-65
2023/10/02 12:03:36;;;;;;;24.00;16.73;;;34.90;1.00;;;;;;4989051;28;20464;-64
2023/10/02 12:06:03;;;;;;;27.00;17.20;;;34.60;1.00;;;;;;4985667;28;20528;-65
2023/10/02 12:08:33;;;;;;;27.83;16.70;;;34.30;1.00;;;;;;4988913;28;20468;-65
2023/10/02 12:11:00;;;;;;;23.40;15.50;;;33.90;1.00;;;;;;4988618;28;21021;-64
2023/10/02 12:13:29;;;;;;;23.43;15.20;;;33.70;1.00;;;;;;4986375;28;20464;-64
2023/10/02 12:15:57;;;;;;;24.80;15.33;;;33.50;1.00;;;;;;4984917;28;20961;-65
2023/10/02 12:18:24;;;;;;;26.63;15.93;;;33.30;1.00;;;;;;4988578;28;20468;-64
2023/10/02 12:20:51;;;;;;;26.73;15.83;;;33.10;1.00;;;;;;4986066;28;20475;-64
2023/10/02 12:23:18;;;;;;;27.17;16.60;;;32.90;1.00;;;;;;4989029;28;20957;-65
2023/10/02 12:25:48;;;;;;;26.47;18.03;;;32.70;1.00;;;;;;4988767;28;21000;-64
2023/10/02 12:28:15;;;;;;;30.43;18.57;;;32.40;1.00;;;;;;4987291;28;20880;-64
2023/10/02 12:30:42;;;;;;;30.50;17.63;;;32.20;1.00;;;;;;4984166;28;21034;-64
2023/10/02 12:33:10;;;;;;;29.80;18.73;;;32.00;1.00;;;;;;4969439;28;20458;-64
2023/10/02 12:35:37;;;;;;;29.63;18.30;;;31.80;1.00;;;;;;4967802;28;20486;-64
2023/10/02 12:38:04;;;;;;;27.63;17.80;;;31.50;1.00;;;;;;4969684;28;20958;-64
2023/10/02 12:40:33;;;;;;;28.13;19.00;;;31.20;1.00;;;;;;4969162;28;20462;-64
2023/10/02 12:43:01;;;;;;;27.47;18.00;;;30.90;1.00;;;;;;4967662;28;21338;-64
2023/10/02 12:45:33;;;;;;;29.70;18.80;;;30.60;1.00;;;;;;4967393;28;20493;-64
2023/10/02 12:48:00;;;;;;;33.80;20.37;;;30.20;1.00;;;;;;4970188;28;20466;-64
2023/10/02 12:50:28;;;;;;;32.80;20.87;;;30.00;1.00;;;;;;4969373;28;20962;-64
2023/10/02 12:52:55;;;;;;;35.07;21.53;;;29.80;1.00;;;;;;4967930;28;21542;-64
2023/10/02 12:55:22;;;;;;;34.47;21.07;;;29.50;1.00;;;;;;4967723;28;20568;-65
2023/10/02 12:57:48;;;;;;;29.07;17.70;;;29.40;1.00;;;;;;4970215;28;20990;-65
2023/10/02 13:00:17;;;;;;;33.10;20.43;;;29.20;1.00;;;;;;4968675;28;20473;-64
2023/10/02 13:02:44;;;;;;;33.90;20.63;;;29.10;1.00;;;;;;4967057;28;20458;-64
2023/10/02 13:05:11;;;;;;;33.93;20.63;;;29.10;1.00;;;;;;4967360;28;20493;-65
2023/10/02 13:07:41;;;;;;;39.30;21.73;;;29.00;1.00;;;;;;4963989;28;20458;-65
2023/10/02 13:10:08;;;;;;;32.67;19.90;;;28.80;1.00;;;;;;4968432;28;20552;-65
2023/10/02 13:12:35;;;;;;;40.70;23.80;;;28.80;1.00;;;;;;4969591;28;20469;-64
2023/10/02 13:15:02;;;;;;;39.50;23.43;;;28.70;1.00;;;;;;4961154;28;20490;-66
2023/10/02 13:17:29;;;;;;;39.13;22.07;;;28.60;1.00;;;;;;4968886;28;20580;-65
2023/10/02 13:19:57;;;;;;;32.47;20.90;;;28.50;1.00;;;;;;4966793;28;20466;-66
2023/10/02 13:22:24;;;;;;;35.50;23.40;;;28.40;1.00;;;;;;4967030;28;20488;-65